sensor_id;sensor_type;location;lat;lon;timestamp;temperature;humidity
56498;DHT22;51790;45.558;12.076;2022-08-03T00:00:49;24.70;65.00
56498;DHT22;51790;45.558;12.076;2022-08-03T00:06:50;24.50;65.40
56498;DHT22;51790;45.558;12.076;2022-08-03T00:12:52;24.50;65.40
56498;DHT22;51790;45.558;12.076;2022-08-03T00:18:53;24.40;65.40
56498;DHT22;51790;45.558;12.076;2022-08-03T00:24:54;24.20;65.70
56498;DHT22;51790;45.558;12.076;2022-08-03T00:30:55;24.20;65.50
56498;DHT22;51790;45.558;12.076;2022-08-03T00:36:57;24.20;65.60
56498;DHT22;51790;45.558;12.076;2022-08-03T00:43:01;24.10;65.80
56498;DHT22;51790;45.558;12.076;2022-08-03T00:49:02;24.10;66.10
56498;DHT22;51790;45.558;12.076;2022-08-03T00:55:04;24.10;66.00
56498;DHT22;51790;45.558;12.076;2022-08-03T01:01:05;24.00;66.10
56498;DHT22;51790;45.558;12.076;2022-08-03T01:19:49;23.90;66.30
56498;DHT22;51790;45.558;12.076;2022-08-03T01:32:12;23.90;65.90
56498;DHT22;51790;45.558;12.076;2022-08-03T01:44:41;24.00;65.60
56498;DHT22;51790;45.558;12.076;2022-08-03T01:50:44;23.90;65.80
56498;DHT22;51790;45.558;12.076;2022-08-03T01:56:46;24.00;65.60
56498;DHT22;51790;45.558;12.076;2022-08-03T02:02:49;23.90;65.50
56498;DHT22;51790;45.558;12.076;2022-08-03T02:08:51;23.80;65.90
56498;DHT22;51790;45.558;12.076;2022-08-03T02:14:53;23.70;65.70
56498;DHT22;51790;45.558;12.076;2022-08-03T02:20:56;23.80;65.20
56498;DHT22;51790;45.558;12.076;2022-08-03T02:26:58;23.70;65.40
56498;DHT22;51790;45.558;12.076;2022-08-03T02:33:01;23.60;66.50
56498;DHT22;51790;45.558;12.076;2022-08-03T02:39:03;23.30;67.50
56498;DHT22;51790;45.558;12.076;2022-08-03T02:45:05;23.20;67.70
56498;DHT22;51790;45.558;12.076;2022-08-03T02:51:09;23.20;67.50
56498;DHT22;51790;45.558;12.076;2022-08-03T02:57:10;23.20;67.50
56498;DHT22;51790;45.558;12.076;2022-08-03T03:03:13;23.10;68.00
56498;DHT22;51790;45.558;12.076;2022-08-03T03:09:15;23.10;67.40
56498;DHT22;51790;45.558;12.076;2022-08-03T03:15:16;23.10;67.70
56498;DHT22;51790;45.558;12.076;2022-08-03T03:21:19;23.00;68.10
56498;DHT22;51790;45.558;12.076;2022-08-03T03:27:21;22.90;67.70
56498;DHT22;51790;45.558;12.076;2022-08-03T03:33:23;22.80;68.30
56498;DHT22;51790;45.558;12.076;2022-08-03T03:39:24;22.70;68.50
56498;DHT22;51790;45.558;12.076;2022-08-03T03:45:25;22.80;68.60
56498;DHT22;51790;45.558;12.076;2022-08-03T03:51:28;22.80;68.70
56498;DHT22;51790;45.558;12.076;2022-08-03T03:57:29;22.70;68.90
56498;DHT22;51790;45.558;12.076;2022-08-03T04:03:30;22.50;69.60
56498;DHT22;51790;45.558;12.076;2022-08-03T04:09:31;22.50;70.10
56498;DHT22;51790;45.558;12.076;2022-08-03T04:15:53;22.60;70.10
56498;DHT22;51790;45.558;12.076;2022-08-03T04:21:59;22.60;70.00
56498;DHT22;51790;45.558;12.076;2022-08-03T04:28:01;22.50;69.90
56498;DHT22;51790;45.558;12.076;2022-08-03T04:34:02;22.80;69.20
56498;DHT22;51790;45.558;12.076;2022-08-03T04:40:05;22.70;69.40
56498;DHT22;51790;45.558;12.076;2022-08-03T04:46:07;22.70;69.30
56498;DHT22;51790;45.558;12.076;2022-08-03T04:52:08;23.10;68.70
56498;DHT22;51790;45.558;12.076;2022-08-03T04:58:10;23.30;68.10
56498;DHT22;51790;45.558;12.076;2022-08-03T05:04:12;23.50;67.50
56498;DHT22;51790;45.558;12.076;2022-08-03T05:10:14;23.40;67.50
56498;DHT22;51790;45.558;12.076;2022-08-03T05:22:17;23.50;67.40
56498;DHT22;51790;45.558;12.076;2022-08-03T05:28:18;23.80;66.60
56498;DHT22;51790;45.558;12.076;2022-08-03T05:34:20;23.70;67.30
56498;DHT22;51790;45.558;12.076;2022-08-03T05:46:24;24.30;66.20
56498;DHT22;51790;45.558;12.076;2022-08-03T05:52:25;24.30;66.50
56498;DHT22;51790;45.558;12.076;2022-08-03T05:58:27;24.50;65.30
56498;DHT22;51790;45.558;12.076;2022-08-03T06:04:29;24.70;65.00
56498;DHT22;51790;45.558;12.076;2022-08-03T06:10:30;25.00;64.10
56498;DHT22;51790;45.558;12.076;2022-08-03T06:16:31;25.20;63.70
56498;DHT22;51790;45.558;12.076;2022-08-03T06:22:33;25.50;62.90
56498;DHT22;51790;45.558;12.076;2022-08-03T06:28:34;26.00;62.20
56498;DHT22;51790;45.558;12.076;2022-08-03T06:34:36;26.30;60.20
56498;DHT22;51790;45.558;12.076;2022-08-03T06:40:37;27.10;58.00
56498;DHT22;51790;45.558;12.076;2022-08-03T06:46:41;27.10;58.80
56498;DHT22;51790;45.558;12.076;2022-08-03T06:52:43;27.30;58.50
56498;DHT22;51790;45.558;12.076;2022-08-03T06:58:44;27.50;57.10
56498;DHT22;51790;45.558;12.076;2022-08-03T07:04:47;27.30;56.80
56498;DHT22;51790;45.558;12.076;2022-08-03T07:10:49;27.60;56.50
56498;DHT22;51790;45.558;12.076;2022-08-03T07:16:50;27.70;55.90
56498;DHT22;51790;45.558;12.076;2022-08-03T07:22:51;28.00;55.20
56498;DHT22;51790;45.558;12.076;2022-08-03T07:28:52;28.10;55.20
56498;DHT22;51790;45.558;12.076;2022-08-03T07:34:53;28.20;55.50
56498;DHT22;51790;45.558;12.076;2022-08-03T07:46:56;28.40;54.50
56498;DHT22;51790;45.558;12.076;2022-08-03T07:52:58;28.40;54.50
56498;DHT22;51790;45.558;12.076;2022-08-03T08:05:02;28.60;52.30
56498;DHT22;51790;45.558;12.076;2022-08-03T08:11:04;28.70;54.50
56498;DHT22;51790;45.558;12.076;2022-08-03T08:17:05;29.00;53.00
56498;DHT22;51790;45.558;12.076;2022-08-03T08:23:07;29.00;52.10
56498;DHT22;51790;45.558;12.076;2022-08-03T08:29:08;29.20;52.90
56498;DHT22;51790;45.558;12.076;2022-08-03T08:35:10;29.20;51.70
56498;DHT22;51790;45.558;12.076;2022-08-03T08:41:12;29.10;52.90
56498;DHT22;51790;45.558;12.076;2022-08-03T08:47:14;29.20;50.40
56498;DHT22;51790;45.558;12.076;2022-08-03T08:53:15;29.20;53.40
56498;DHT22;51790;45.558;12.076;2022-08-03T08:59:17;29.20;52.70
56498;DHT22;51790;45.558;12.076;2022-08-03T09:05:18;29.70;47.80
56498;DHT22;51790;45.558;12.076;2022-08-03T09:11:20;29.70;48.90
56498;DHT22;51790;45.558;12.076;2022-08-03T09:17:22;29.40;49.30
56498;DHT22;51790;45.558;12.076;2022-08-03T09:23:24;29.50;50.10
56498;DHT22;51790;45.558;12.076;2022-08-03T09:29:25;29.60;49.10
56498;DHT22;51790;45.558;12.076;2022-08-03T09:35:27;29.60;48.60
56498;DHT22;51790;45.558;12.076;2022-08-03T09:41:28;30.00;46.50
56498;DHT22;51790;45.558;12.076;2022-08-03T09:47:31;30.30;46.10
56498;DHT22;51790;45.558;12.076;2022-08-03T09:53:40;30.30;46.70
56498;DHT22;51790;45.558;12.076;2022-08-03T10:05:44;30.30;45.30
56498;DHT22;51790;45.558;12.076;2022-08-03T10:11:45;30.20;49.10
56498;DHT22;51790;45.558;12.076;2022-08-03T10:23:49;30.00;47.50
56498;DHT22;51790;45.558;12.076;2022-08-03T10:29:51;29.90;50.20
56498;DHT22;51790;45.558;12.076;2022-08-03T10:41:55;30.50;47.80
56498;DHT22;51790;45.558;12.076;2022-08-03T10:47:59;30.20;48.90
56498;DHT22;51790;45.558;12.076;2022-08-03T10:54:01;30.90;45.10
56498;DHT22;51790;45.558;12.076;2022-08-03T11:00:03;31.00;44.10
56498;DHT22;51790;45.558;12.076;2022-08-03T11:06:16;30.40;48.00
56498;DHT22;51790;45.558;12.076;2022-08-03T11:12:22;30.40;48.50
56498;DHT22;51790;45.558;12.076;2022-08-03T11:18:23;30.60;45.50
56498;DHT22;51790;45.558;12.076;2022-08-03T11:30:51;31.00;44.40
56498;DHT22;51790;45.558;12.076;2022-08-03T11:54:59;30.60;47.20
56498;DHT22;51790;45.558;12.076;2022-08-03T12:01:04;31.20;41.70
56498;DHT22;51790;45.558;12.076;2022-08-03T12:07:06;30.90;45.70
56498;DHT22;51790;45.558;12.076;2022-08-03T12:13:07;30.70;45.80
56498;DHT22;51790;45.558;12.076;2022-08-03T12:19:09;30.90;46.40
56498;DHT22;51790;45.558;12.076;2022-08-03T12:25:17;31.90;41.40
56498;DHT22;51790;45.558;12.076;2022-08-03T12:31:20;31.20;45.20
56498;DHT22;51790;45.558;12.076;2022-08-03T12:37:21;31.10;44.90
56498;DHT22;51790;45.558;12.076;2022-08-03T13:01:36;31.00;45.70
56498;DHT22;51790;45.558;12.076;2022-08-03T13:07:41;30.90;45.70
56498;DHT22;51790;45.558;12.076;2022-08-03T13:13:42;31.10;46.00
56498;DHT22;51790;45.558;12.076;2022-08-03T13:19:44;31.30;45.80
56498;DHT22;51790;45.558;12.076;2022-08-03T13:25:45;31.50;45.70
56498;DHT22;51790;45.558;12.076;2022-08-03T13:37:48;31.50;45.90
56498;DHT22;51790;45.558;12.076;2022-08-03T13:43:49;31.10;47.40
56498;DHT22;51790;45.558;12.076;2022-08-03T13:49:51;31.40;46.50
56498;DHT22;51790;45.558;12.076;2022-08-03T13:55:53;31.10;47.10
56498;DHT22;51790;45.558;12.076;2022-08-03T14:01:54;32.20;45.00
56498;DHT22;51790;45.558;12.076;2022-08-03T14:07:56;32.10;45.60
56498;DHT22;51790;45.558;12.076;2022-08-03T14:38:05;31.70;44.40
56498;DHT22;51790;45.558;12.076;2022-08-03T14:44:06;32.00;45.10
56498;DHT22;51790;45.558;12.076;2022-08-03T15:02:11;31.60;43.10
56498;DHT22;51790;45.558;12.076;2022-08-03T15:08:12;31.70;43.90
56498;DHT22;51790;45.558;12.076;2022-08-03T15:14:13;31.80;44.10
56498;DHT22;51790;45.558;12.076;2022-08-03T15:20:15;31.90;41.80
56498;DHT22;51790;45.558;12.076;2022-08-03T15:32:18;31.70;37.90
56498;DHT22;51790;45.558;12.076;2022-08-03T15:38:19;31.80;37.00
56498;DHT22;51790;45.558;12.076;2022-08-03T15:44:23;31.60;42.00
56498;DHT22;51790;45.558;12.076;2022-08-03T15:50:24;31.90;41.80
56498;DHT22;51790;45.558;12.076;2022-08-03T15:56:25;32.20;41.20
56498;DHT22;51790;45.558;12.076;2022-08-03T16:02:26;32.40;39.50
56498;DHT22;51790;45.558;12.076;2022-08-03T16:08:28;32.10;39.80
56498;DHT22;51790;45.558;12.076;2022-08-03T16:20:31;32.20;40.10
56498;DHT22;51790;45.558;12.076;2022-08-03T16:26:32;32.30;39.50
56498;DHT22;51790;45.558;12.076;2022-08-03T16:44:36;32.00;38.20
56498;DHT22;51790;45.558;12.076;2022-08-03T16:56:39;32.20;38.30
56498;DHT22;51790;45.558;12.076;2022-08-03T17:02:41;32.10;38.90
56498;DHT22;51790;45.558;12.076;2022-08-03T17:08:43;32.10;39.50
56498;DHT22;51790;45.558;12.076;2022-08-03T18:09:17;31.50;40.60
56498;DHT22;51790;45.558;12.076;2022-08-03T18:15:25;31.20;41.90
56498;DHT22;51790;45.558;12.076;2022-08-03T18:21:27;30.90;42.30
56498;DHT22;51790;45.558;12.076;2022-08-03T18:27:28;30.90;41.40
56498;DHT22;51790;45.558;12.076;2022-08-03T18:33:33;30.60;41.60
56498;DHT22;51790;45.558;12.076;2022-08-03T18:39:36;30.50;41.80
56498;DHT22;51790;45.558;12.076;2022-08-03T18:45:41;30.40;42.70
56498;DHT22;51790;45.558;12.076;2022-08-03T19:03:51;29.90;47.10
56498;DHT22;51790;45.558;12.076;2022-08-03T19:09:59;29.80;48.20
56498;DHT22;51790;45.558;12.076;2022-08-03T19:16:02;29.70;49.50
56498;DHT22;51790;45.558;12.076;2022-08-03T19:22:05;29.60;50.30
56498;DHT22;51790;45.558;12.076;2022-08-03T19:28:07;29.50;50.60
56498;DHT22;51790;45.558;12.076;2022-08-03T19:34:08;29.50;51.00
56498;DHT22;51790;45.558;12.076;2022-08-03T19:40:10;29.40;51.60
56498;DHT22;51790;45.558;12.076;2022-08-03T19:46:11;29.20;52.00
56498;DHT22;51790;45.558;12.076;2022-08-03T19:52:13;29.30;51.80
56498;DHT22;51790;45.558;12.076;2022-08-03T19:58:16;29.20;51.40
56498;DHT22;51790;45.558;12.076;2022-08-03T20:04:18;29.20;52.80
56498;DHT22;51790;45.558;12.076;2022-08-03T20:10:20;28.90;53.20
56498;DHT22;51790;45.558;12.076;2022-08-03T20:16:21;28.90;53.80
56498;DHT22;51790;45.558;12.076;2022-08-03T20:22:26;28.80;54.00
56498;DHT22;51790;45.558;12.076;2022-08-03T20:28:31;28.70;54.30
56498;DHT22;51790;45.558;12.076;2022-08-03T20:34:32;28.60;54.60
56498;DHT22;51790;45.558;12.076;2022-08-03T20:40:34;28.40;55.40
56498;DHT22;51790;45.558;12.076;2022-08-03T20:46:35;28.30;55.50
56498;DHT22;51790;45.558;12.076;2022-08-03T20:58:40;28.20;56.10
56498;DHT22;51790;45.558;12.076;2022-08-03T21:04:42;27.80;58.00
